Terminal Aerodrome Forecast
Issued by NWS Jackson, MS

Home | Current Version | Previous Version | Text Only | Print | Product List | Glossary On
Versions: 1 2 3 4 5 6 7 8 9 10 11 12 13 14 15 16 17 18
000
FTUS44 KJAN 261800 AAA
TAFGWO
TAF AMD
KGWO 261832Z 2619/2718 32012KT P6SM FEW030
     FM270100 22003KT P6SM SKC=

USA.gov is the U.S. government's official web portal to all federal, state and local government web resources and services.